createdAt,value
2016-05-07T00:00:05.762Z,1008.63
2016-05-07T00:00:15.606Z,1008.65
2016-05-07T00:00:25.765Z,1008.63
2016-05-07T00:00:35.765Z,1008.66
2016-05-07T00:00:45.765Z,1008.63
2016-05-07T00:00:55.749Z,1008.66
2016-05-07T00:01:05.749Z,1008.61
2016-05-07T00:01:15.749Z,1008.63
2016-05-07T00:01:25.720Z,1008.65
2016-05-07T00:01:35.736Z,1008.63
2016-05-07T00:01:45.720Z,1008.65
2016-05-07T00:01:55.720Z,1008.68
2016-05-07T00:02:05.736Z,1008.62
2016-05-07T00:02:15.720Z,1008.61
2016-05-07T00:02:25.707Z,1008.64
2016-05-07T00:02:35.707Z,1008.65
2016-05-07T00:02:45.536Z,1008.66
2016-05-07T00:02:55.692Z,1008.61
2016-05-07T00:03:05.676Z,1008.67
2016-05-07T00:03:15.536Z,1008.61
2016-05-07T00:03:25.695Z,1008.68
2016-05-07T00:03:35.679Z,1008.63
2016-05-07T00:03:45.695Z,1008.61
2016-05-07T00:03:55.539Z,1008.62
2016-05-07T00:04:05.664Z,1008.65
2016-05-07T00:04:15.648Z,1008.65
2016-05-07T00:04:25.650Z,1008.65
2016-05-07T00:04:35.650Z,1008.65
2016-05-07T00:04:45.634Z,1008.66
2016-05-07T00:04:55.650Z,1008.62
2016-05-07T00:05:05.634Z,1008.67
2016-05-07T00:05:15.634Z,1008.64
2016-05-07T00:05:25.653Z,1008.63
2016-05-07T00:05:35.622Z,1008.63
2016-05-07T00:05:45.637Z,1008.64
2016-05-07T00:05:55.465Z,1008.64
2016-05-07T00:06:05.590Z,1008.66
2016-05-07T00:06:15.606Z,1008.62
2016-05-07T00:06:25.593Z,1008.62
2016-05-07T00:06:35.593Z,1008.6
2016-05-07T00:06:45.593Z,1008.65
2016-05-07T00:06:55.593Z,1008.66
2016-05-07T00:07:05.578Z,1008.66
2016-05-07T00:07:15.578Z,1008.66
2016-05-07T00:07:25.565Z,1008.63
2016-05-07T00:07:35.581Z,1008.65
2016-05-07T00:07:45.565Z,1008.65
2016-05-07T00:07:55.565Z,1008.64
2016-05-07T00:08:05.237Z,1008.67
2016-05-07T00:08:15.550Z,1008.65
2016-05-07T00:08:25.552Z,1008.68
2016-05-07T00:08:35.380Z,1008.67
2016-05-07T00:08:45.536Z,1008.68
2016-05-07T00:08:55.520Z,1008.68
2016-05-07T00:09:05.520Z,1008.69
2016-05-07T00:09:15.520Z,1008.67
2016-05-07T00:09:25.523Z,1008.68
2016-05-07T00:09:35.523Z,1008.69
2016-05-07T00:09:45.508Z,1008.67
2016-05-07T00:09:55.508Z,1008.66
2016-05-07T00:10:05.476Z,1008.69
2016-05-07T00:10:15.336Z,1008.63
2016-05-07T00:10:25.494Z,1008.66
2016-05-07T00:10:35.338Z,1008.69
2016-05-07T00:10:45.494Z,1008.71
2016-05-07T00:10:55.322Z,1008.67
2016-05-07T00:11:05.463Z,1008.66
2016-05-07T00:11:15.463Z,1008.67
2016-05-07T00:11:25.451Z,1008.66
2016-05-07T00:11:35.467Z,1008.66
2016-05-07T00:11:45.482Z,1008.64
2016-05-07T00:11:55.295Z,1008.63
2016-05-07T00:12:05.311Z,1008.68
2016-05-07T00:12:15.826Z,1008.66
2016-05-07T00:12:25.484Z,1008.65
2016-05-07T00:12:35.266Z,1008.65
2016-05-07T00:12:45.406Z,1008.64
2016-05-07T00:12:55.422Z,1008.67
2016-05-07T00:13:05.266Z,1008.65
2016-05-07T00:13:15.406Z,1008.64
2016-05-07T00:13:25.408Z,1008.67
2016-05-07T00:13:35.408Z,1008.63
2016-05-07T00:13:45.393Z,1008.65
2016-05-07T00:13:55.393Z,1008.6
2016-05-07T00:14:05.408Z,1008.62
2016-05-07T00:14:15.377Z,1008.65
2016-05-07T00:14:25.381Z,1008.68
2016-05-07T00:14:35.365Z,1008.63
2016-05-07T00:14:45.365Z,1008.64
2016-05-07T00:14:55.209Z,1008.59
2016-05-07T00:15:05.209Z,1008.61
2016-05-07T00:15:15.350Z,1008.6
2016-05-07T00:15:25.211Z,1008.66
2016-05-07T00:15:35.196Z,1008.65
2016-05-07T00:15:45.336Z,1008.62
2016-05-07T00:15:55.336Z,1008.67
2016-05-07T00:16:05.321Z,1008.66
2016-05-07T00:16:15.321Z,1008.61
2016-05-07T00:16:25.323Z,1008.64
2016-05-07T00:16:35.307Z,1008.62
2016-05-07T00:16:45.323Z,1008.63
2016-05-07T00:16:55.323Z,1008.62
2016-05-07T00:17:05.307Z,1008.62
2016-05-07T00:17:15.151Z,1008.65
2016-05-07T00:17:25.310Z,1008.65
2016-05-07T00:17:35.294Z,1008.66
2016-05-07T00:17:45.279Z,1008.61
2016-05-07T00:17:55.263Z,1008.64
2016-05-07T00:18:05.122Z,1008.62
2016-05-07T00:18:15.122Z,1008.62
2016-05-07T00:18:25.266Z,1008.63
2016-05-07T00:18:35.266Z,1008.62
2016-05-07T00:18:45.250Z,1008.62
2016-05-07T00:18:55.250Z,1008.58
2016-05-07T00:19:05.250Z,1008.62
2016-05-07T00:19:15.235Z,1008.61
2016-05-07T00:19:25.238Z,1008.61
2016-05-07T00:19:35.238Z,1008.59
2016-05-07T00:19:45.222Z,1008.64
2016-05-07T00:19:55.222Z,1008.6
2016-05-07T00:20:05.222Z,1008.61
2016-05-07T00:20:15.207Z,1008.59
2016-05-07T00:20:25.210Z,1008.58
2016-05-07T00:20:35.210Z,1008.58
2016-05-07T00:20:45.225Z,1008.59
2016-05-07T00:20:55.194Z,1008.57
2016-05-07T00:21:05.194Z,1008.58
2016-05-07T00:21:15.022Z,1008.56
2016-05-07T00:21:25.180Z,1008.55
2016-05-07T00:21:35.196Z,1008.56
2016-05-07T00:21:45.165Z,1008.62
2016-05-07T00:21:55.165Z,1008.58
2016-05-07T00:22:05.165Z,1008.57
2016-05-07T00:22:15.149Z,1008.57
2016-05-07T00:22:25.152Z,1008.56
2016-05-07T00:22:35.152Z,1008.58
2016-05-07T00:22:45.136Z,1008.57
2016-05-07T00:22:54.996Z,1008.59
2016-05-07T00:23:04.996Z,1008.56
2016-05-07T00:23:15.136Z,1008.54
2016-05-07T00:23:25.138Z,1008.57
2016-05-07T00:23:35.107Z,1008.57
2016-05-07T00:23:45.123Z,1008.55
2016-05-07T00:23:55.123Z,1008.58
2016-05-07T00:24:05.107Z,1008.57
2016-05-07T00:24:15.107Z,1008.53
2016-05-07T00:24:25.095Z,1008.56
2016-05-07T00:24:35.095Z,1008.56
2016-05-07T00:24:44.938Z,1008.56
2016-05-07T00:24:55.079Z,1008.55
2016-05-07T00:25:05.079Z,1008.56
2016-05-07T00:25:15.079Z,1008.59
2016-05-07T00:25:25.051Z,1008.56
2016-05-07T00:25:35.066Z,1008.56
2016-05-07T00:25:45.066Z,1008.55
2016-05-07T00:25:54.910Z,1008.59
2016-05-07T00:26:05.066Z,1008.56
2016-05-07T00:26:14.894Z,1008.54
2016-05-07T00:26:25.054Z,1008.54
2016-05-07T00:26:35.054Z,1008.53
2016-05-07T00:26:45.007Z,1008.54
2016-05-07T00:26:55.038Z,1008.54
2016-05-07T00:27:05.038Z,1008.57
2016-05-07T00:27:15.069Z,1008.58
2016-05-07T00:27:24.884Z,1008.57
2016-05-07T00:27:35.009Z,1008.57
2016-05-07T00:27:45.009Z,1008.52
2016-05-07T00:27:55.009Z,1008.53
2016-05-07T00:28:05.009Z,1008.56
2016-05-07T00:28:14.993Z,1008.53
2016-05-07T00:28:24.996Z,1008.54
2016-05-07T00:28:34.824Z,1008.55
2016-05-07T00:28:44.965Z,1008.55
2016-05-07T00:28:54.809Z,1008.54
2016-05-07T00:29:04.965Z,1008.56
2016-05-07T00:29:14.981Z,1008.5
2016-05-07T00:29:24.811Z,1008.59
2016-05-07T00:29:34.951Z,1008.55
2016-05-07T00:29:44.951Z,1008.56
2016-05-07T00:29:54.936Z,1008.54
2016-05-07T00:30:04.779Z,1008.57
2016-05-07T00:30:14.779Z,1008.51
2016-05-07T00:30:24.940Z,1008.5
2016-05-07T00:30:34.924Z,1008.55
2016-05-07T00:30:44.924Z,1008.52
2016-05-07T00:30:54.924Z,1008.53
2016-05-07T00:31:04.908Z,1008.5
2016-05-07T00:31:14.752Z,1008.52
2016-05-07T00:31:24.770Z,1008.51
2016-05-07T00:31:34.895Z,1008.52
2016-05-07T00:31:44.895Z,1008.51
2016-05-07T00:31:54.895Z,1008.55
2016-05-07T00:32:04.723Z,1008.53
2016-05-07T00:32:14.879Z,1008.54
2016-05-07T00:32:24.882Z,1008.5
2016-05-07T00:32:34.882Z,1008.55
2016-05-07T00:32:44.867Z,1008.51
2016-05-07T00:32:54.710Z,1008.56
2016-05-07T00:33:04.851Z,1008.54
2016-05-07T00:33:14.851Z,1008.51
2016-05-07T00:33:24.697Z,1008.53
2016-05-07T00:33:34.853Z,1008.51
2016-05-07T00:33:44.837Z,1008.52
2016-05-07T00:33:54.837Z,1008.51
2016-05-07T00:34:04.822Z,1008.54
2016-05-07T00:34:14.665Z,1008.51
2016-05-07T00:34:24.825Z,1008.49
2016-05-07T00:34:34.825Z,1008.53
2016-05-07T00:34:44.793Z,1008.51
2016-05-07T00:34:54.809Z,1008.57
2016-05-07T00:35:04.793Z,1008.54
2016-05-07T00:35:14.653Z,1008.53
2016-05-07T00:35:24.781Z,1008.57
2016-05-07T00:35:34.796Z,1008.54
2016-05-07T00:35:44.640Z,1008.53
2016-05-07T00:35:54.781Z,1008.51
2016-05-07T00:36:04.796Z,1008.53
2016-05-07T00:36:14.765Z,1008.55
2016-05-07T00:36:24.767Z,1008.49
2016-05-07T00:36:34.611Z,1008.5
2016-05-07T00:36:44.752Z,1008.55
2016-05-07T00:36:54.752Z,1008.53
2016-05-07T00:37:04.736Z,1008.54
2016-05-07T00:37:14.580Z,1008.52
2016-05-07T00:37:24.599Z,1008.55
2016-05-07T00:37:34.584Z,1008.55
2016-05-07T00:37:44.724Z,1008.54
2016-05-07T00:37:54.724Z,1008.56
2016-05-07T00:38:04.709Z,1008.54
2016-05-07T00:38:14.709Z,1008.52
2016-05-07T00:38:24.554Z,1008.54
2016-05-07T00:38:34.554Z,1008.51
2016-05-07T00:38:44.695Z,1008.48
2016-05-07T00:38:54.695Z,1008.51
2016-05-07T00:39:04.695Z,1008.5
2016-05-07T00:39:14.679Z,1008.49
2016-05-07T00:39:24.682Z,1008.53
2016-05-07T00:39:34.682Z,1008.53
2016-05-07T00:39:44.511Z,1008.46
2016-05-07T00:39:54.511Z,1008.49
2016-05-07T00:40:04.495Z,1008.5
2016-05-07T00:40:14.667Z,1008.48
2016-05-07T00:40:24.653Z,1008.5
2016-05-07T00:40:34.653Z,1008.48
2016-05-07T00:40:44.653Z,1008.53
2016-05-07T00:40:54.638Z,1008.51
2016-05-07T00:41:04.622Z,1008.5
2016-05-07T00:41:14.622Z,1008.5
2016-05-07T00:41:24.469Z,1008.51
2016-05-07T00:41:34.625Z,1008.54
2016-05-07T00:41:44.625Z,1008.53
2016-05-07T00:41:54.500Z,1008.53
2016-05-07T00:42:04.609Z,1008.48
2016-05-07T00:42:14.609Z,1008.53
2016-05-07T00:42:24.643Z,1008.52
2016-05-07T00:42:34.596Z,1008.49
2016-05-07T00:42:44.596Z,1008.52
2016-05-07T00:42:54.580Z,1008.48
2016-05-07T00:43:04.580Z,1008.5
2016-05-07T00:43:14.564Z,1008.49
2016-05-07T00:43:24.552Z,1008.49
2016-05-07T00:43:34.567Z,1008.49
2016-05-07T00:43:44.396Z,1008.51
2016-05-07T00:43:54.396Z,1008.51
2016-05-07T00:44:04.552Z,1008.51
2016-05-07T00:44:14.380Z,1008.48
2016-05-07T00:44:24.539Z,1008.49
2016-05-07T00:44:34.539Z,1008.48
2016-05-07T00:44:44.524Z,1008.5
2016-05-07T00:44:54.524Z,1008.5
2016-05-07T00:45:04.524Z,1008.51
2016-05-07T00:45:14.508Z,1008.51
2016-05-07T00:45:24.527Z,1008.48
2016-05-07T00:45:34.355Z,1008.5
2016-05-07T00:45:44.355Z,1008.51
2016-05-07T00:45:54.355Z,1008.46
2016-05-07T00:46:04.370Z,1008.49
2016-05-07T00:46:14.511Z,1008.47
2016-05-07T00:46:24.482Z,1008.44
2016-05-07T00:46:34.325Z,1008.5
2016-05-07T00:46:44.466Z,1008.47
2016-05-07T00:46:54.466Z,1008.48
2016-05-07T00:47:04.482Z,1008.5
2016-05-07T00:47:14.450Z,1008.53
2016-05-07T00:47:24.469Z,1008.51
2016-05-07T00:47:34.469Z,1008.52
2016-05-07T00:47:44.453Z,1008.51
2016-05-07T00:47:54.438Z,1008.47
2016-05-07T00:48:04.422Z,1008.47
2016-05-07T00:48:14.438Z,1008.52
2016-05-07T00:48:24.425Z,1008.51
2016-05-07T00:48:34.425Z,1008.5
2016-05-07T00:48:44.425Z,1008.53
2016-05-07T00:48:54.410Z,1008.54
2016-05-07T00:49:04.425Z,1008.52
2016-05-07T00:49:14.253Z,1008.47
2016-05-07T00:49:24.396Z,1008.47
2016-05-07T00:49:34.240Z,1008.49
2016-05-07T00:49:44.380Z,1008.49
2016-05-07T00:49:54.380Z,1008.52
2016-05-07T00:50:04.224Z,1008.5
2016-05-07T00:50:14.380Z,1008.5
2016-05-07T00:50:24.368Z,1008.5
2016-05-07T00:50:34.368Z,1008.51
2016-05-07T00:50:44.368Z,1008.52
2016-05-07T00:50:54.368Z,1008.51
2016-05-07T00:51:04.352Z,1008.51
2016-05-07T00:51:14.180Z,1008.47
2016-05-07T00:51:24.339Z,1008.47
2016-05-07T00:51:34.339Z,1008.47
2016-05-07T00:51:44.324Z,1008.46
2016-05-07T00:51:54.324Z,1008.49
2016-05-07T00:52:04.324Z,1008.47
2016-05-07T00:52:14.308Z,1008.47
2016-05-07T00:52:24.310Z,1008.48
2016-05-07T00:52:34.310Z,1008.5
2016-05-07T00:52:44.310Z,1008.46
2016-05-07T00:52:54.310Z,1008.46
2016-05-07T00:53:04.295Z,1008.47
2016-05-07T00:53:14.138Z,1008.44
2016-05-07T00:53:24.157Z,1008.47
2016-05-07T00:53:34.282Z,1008.46
2016-05-07T00:53:44.282Z,1008.46
2016-05-07T00:53:54.282Z,1008.48
2016-05-07T00:54:04.266Z,1008.47
2016-05-07T00:54:14.266Z,1008.48
2016-05-07T00:54:24.254Z,1008.49
2016-05-07T00:54:34.254Z,1008.47
2016-05-07T00:54:44.254Z,1008.47
2016-05-07T00:54:54.097Z,1008.43
2016-05-07T00:55:03.926Z,1008.48
2016-05-07T00:55:14.082Z,1008.46
2016-05-07T00:55:24.225Z,1008.46
2016-05-07T00:55:34.257Z,1008.46
2016-05-07T00:55:44.225Z,1008.43
2016-05-07T00:55:54.210Z,1008.45
2016-05-07T00:56:04.069Z,1008.48
2016-05-07T00:56:14.210Z,1008.48
2016-05-07T00:56:24.213Z,1008.47
2016-05-07T00:56:34.291Z,1008.48
2016-05-07T00:56:44.213Z,1008.49
2016-05-07T00:56:54.322Z,1008.44
2016-05-07T00:57:04.213Z,1008.44
2016-05-07T00:57:14.182Z,1008.46
2016-05-07T00:57:24.042Z,1008.44
2016-05-07T00:57:34.167Z,1008.48
2016-05-07T00:57:44.167Z,1008.48
2016-05-07T00:57:54.011Z,1008.45
2016-05-07T00:58:04.167Z,1008.45
2016-05-07T00:58:14.151Z,1008.44
2016-05-07T00:58:24.140Z,1008.46
2016-05-07T00:58:34.140Z,1008.49
2016-05-07T00:58:43.968Z,1008.43
2016-05-07T00:58:54.140Z,1008.45
2016-05-07T00:59:04.124Z,1008.47
2016-05-07T00:59:14.124Z,1008.46
2016-05-07T00:59:24.126Z,1008.45
2016-05-07T00:59:34.110Z,1008.44
2016-05-07T00:59:44.110Z,1008.47
2016-05-07T00:59:54.095Z,1008.47
2016-05-07T01:00:04.095Z,1008.49
2016-05-07T01:00:14.079Z,1008.49
2016-05-07T01:00:24.098Z,1008.5
2016-05-07T01:00:34.082Z,1008.46
2016-05-07T01:00:44.082Z,1008.46
2016-05-07T01:00:54.082Z,1008.48
2016-05-07T01:01:04.082Z,1008.48
2016-05-07T01:01:14.067Z,1008.44
2016-05-07T01:01:23.912Z,1008.48
2016-05-07T01:01:34.053Z,1008.46
2016-05-07T01:01:43.897Z,1008.46
2016-05-07T01:01:54.037Z,1008.47
2016-05-07T01:02:04.037Z,1008.46
2016-05-07T01:02:13.897Z,1008.45
2016-05-07T01:02:24.040Z,1008.51
2016-05-07T01:02:34.025Z,1008.5
2016-05-07T01:02:44.025Z,1008.45
2016-05-07T01:02:54.025Z,1008.48
2016-05-07T01:03:04.009Z,1008.45
2016-05-07T01:03:14.009Z,1008.47
2016-05-07T01:03:24.012Z,1008.45
2016-05-07T01:03:33.996Z,1008.45
2016-05-07T01:03:43.996Z,1008.49
2016-05-07T01:03:53.996Z,1008.45
2016-05-07T01:04:03.965Z,1008.52
2016-05-07T01:04:13.825Z,1008.45
2016-05-07T01:04:23.984Z,1008.49
2016-05-07T01:04:33.968Z,1008.49
2016-05-07T01:04:43.968Z,1008.48
2016-05-07T01:04:53.968Z,1008.48
2016-05-07T01:05:03.812Z,1008.42
2016-05-07T01:05:13.968Z,1008.44
2016-05-07T01:05:23.940Z,1008.5
2016-05-07T01:05:33.940Z,1008.49
2016-05-07T01:05:43.940Z,1008.47
2016-05-07T01:05:53.940Z,1008.46
2016-05-07T01:06:03.940Z,1008.49
2016-05-07T01:06:13.924Z,1008.51
2016-05-07T01:06:23.770Z,1008.51
2016-05-07T01:06:33.911Z,1008.49
2016-05-07T01:06:43.911Z,1008.51
2016-05-07T01:06:53.911Z,1008.49
2016-05-07T01:07:03.895Z,1008.47
2016-05-07T01:07:13.895Z,1008.49
2016-05-07T01:07:23.882Z,1008.48
2016-05-07T01:07:33.882Z,1008.49
2016-05-07T01:07:43.882Z,1008.5
2016-05-07T01:07:53.882Z,1008.51
2016-05-07T01:08:03.882Z,1008.51
2016-05-07T01:08:13.711Z,1008.47
2016-05-07T01:08:23.869Z,1008.52
2016-05-07T01:08:33.853Z,1008.49
2016-05-07T01:08:43.853Z,1008.5
2016-05-07T01:08:53.853Z,1008.52
2016-05-07T01:09:03.853Z,1008.46
2016-05-07T01:09:13.838Z,1008.52
2016-05-07T01:09:23.841Z,1008.51
2016-05-07T01:09:33.669Z,1008.51
2016-05-07T01:09:43.669Z,1008.52
2016-05-07T01:09:53.825Z,1008.49
2016-05-07T01:10:03.653Z,1008.5
2016-05-07T01:10:13.825Z,1008.5
2016-05-07T01:10:23.797Z,1008.49
2016-05-07T01:10:33.812Z,1008.5
2016-05-07T01:10:43.781Z,1008.5
2016-05-07T01:10:53.797Z,1008.52
2016-05-07T01:11:03.640Z,1008.53
2016-05-07T01:11:13.781Z,1008.54
2016-05-07T01:11:23.625Z,1008.51
2016-05-07T01:11:33.768Z,1008.51
2016-05-07T01:11:43.784Z,1008.52
2016-05-07T01:11:54.300Z,1008.5
2016-05-07T01:12:05.315Z,1008.51
2016-05-07T01:12:14.128Z,1008.54
2016-05-07T01:12:23.753Z,1008.49
2016-05-07T01:12:33.755Z,1008.53
2016-05-07T01:12:43.755Z,1008.5
2016-05-07T01:12:53.739Z,1008.51
2016-05-07T01:13:03.599Z,1008.51
2016-05-07T01:13:13.724Z,1008.49
2016-05-07T01:13:23.724Z,1008.52
2016-05-07T01:13:33.727Z,1008.54
2016-05-07T01:13:43.711Z,1008.53
2016-05-07T01:13:53.711Z,1008.55
2016-05-07T01:14:03.695Z,1008.53
2016-05-07T01:14:13.711Z,1008.53
2016-05-07T01:14:23.711Z,1008.53
2016-05-07T01:14:33.698Z,1008.53
2016-05-07T01:14:43.698Z,1008.52
2016-05-07T01:14:53.526Z,1008.54
2016-05-07T01:15:03.526Z,1008.53
2016-05-07T01:15:13.511Z,1008.58
2016-05-07T01:15:23.667Z,1008.57
2016-05-07T01:15:33.669Z,1008.52
2016-05-07T01:15:43.669Z,1008.5
2016-05-07T01:15:53.653Z,1008.5
2016-05-07T01:16:03.669Z,1008.52
2016-05-07T01:16:13.638Z,1008.49
2016-05-07T01:16:23.638Z,1008.49
2016-05-07T01:16:33.625Z,1008.54
2016-05-07T01:16:43.625Z,1008.51
2016-05-07T01:16:53.469Z,1008.5
2016-05-07T01:17:03.641Z,1008.54
2016-05-07T01:17:13.469Z,1008.54
2016-05-07T01:17:23.610Z,1008.5
2016-05-07T01:17:33.644Z,1008.52
2016-05-07T01:17:43.456Z,1008.53
2016-05-07T01:17:53.597Z,1008.53
2016-05-07T01:18:03.597Z,1008.52
2016-05-07T01:18:13.581Z,1008.55
2016-05-07T01:18:23.581Z,1008.53
2016-05-07T01:18:33.427Z,1008.52
2016-05-07T01:18:43.568Z,1008.51
2016-05-07T01:18:53.568Z,1008.5
2016-05-07T01:19:03.583Z,1008.51
2016-05-07T01:19:13.568Z,1008.5
2016-05-07T01:19:23.552Z,1008.54
2016-05-07T01:19:33.555Z,1008.45
2016-05-07T01:19:43.555Z,1008.52
2016-05-07T01:19:53.539Z,1008.48
2016-05-07T01:20:03.524Z,1008.49
2016-05-07T01:20:13.539Z,1008.45
2016-05-07T01:20:23.524Z,1008.51
2016-05-07T01:20:33.541Z,1008.48
2016-05-07T01:20:43.370Z,1008.5
2016-05-07T01:20:53.495Z,1008.49
2016-05-07T01:21:03.510Z,1008.5
2016-05-07T01:21:13.495Z,1008.52
2016-05-07T01:21:23.495Z,1008.5
2016-05-07T01:21:33.499Z,1008.46
2016-05-07T01:21:43.499Z,1008.46
2016-05-07T01:21:53.483Z,1008.49
2016-05-07T01:22:03.499Z,1008.47
2016-05-07T01:22:13.327Z,1008.46
2016-05-07T01:22:23.467Z,1008.49
2016-05-07T01:22:33.469Z,1008.5
2016-05-07T01:22:43.469Z,1008.49
2016-05-07T01:22:53.454Z,1008.5
2016-05-07T01:23:03.454Z,1008.5
2016-05-07T01:23:13.454Z,1008.49
2016-05-07T01:23:23.438Z,1008.5
2016-05-07T01:23:33.285Z,1008.51
2016-05-07T01:23:43.425Z,1008.52
2016-05-07T01:23:53.269Z,1008.52
2016-05-07T01:24:03.269Z,1008.47
2016-05-07T01:24:13.410Z,1008.51
2016-05-07T01:24:23.410Z,1008.52
2016-05-07T01:24:33.412Z,1008.46
2016-05-07T01:24:43.412Z,1008.47
2016-05-07T01:24:53.412Z,1008.48
2016-05-07T01:25:03.396Z,1008.49
2016-05-07T01:25:13.381Z,1008.45
2016-05-07T01:25:23.396Z,1008.48
2016-05-07T01:25:33.385Z,1008.49
2016-05-07T01:25:43.369Z,1008.43
2016-05-07T01:25:53.213Z,1008.43
2016-05-07T01:26:03.369Z,1008.46
2016-05-07T01:26:13.369Z,1008.45
2016-05-07T01:26:23.197Z,1008.46
2016-05-07T01:26:33.370Z,1008.44
2016-05-07T01:26:43.354Z,1008.44
2016-05-07T01:26:53.448Z,1008.48
2016-05-07T01:27:03.339Z,1008.45
2016-05-07T01:27:13.479Z,1008.42
2016-05-07T01:27:23.620Z,1008.45
2016-05-07T01:27:33.186Z,1008.45
2016-05-07T01:27:43.171Z,1008.42
2016-05-07T01:27:53.327Z,1008.46
2016-05-07T01:28:03.327Z,1008.43
2016-05-07T01:28:13.311Z,1008.43
2016-05-07T01:28:23.296Z,1008.43
2016-05-07T01:28:33.314Z,1008.43
2016-05-07T01:28:43.158Z,1008.44
2016-05-07T01:28:53.299Z,1008.47
2016-05-07T01:29:03.283Z,1008.44
2016-05-07T01:29:13.283Z,1008.44
2016-05-07T01:29:23.268Z,1008.46
2016-05-07T01:29:33.270Z,1008.46
2016-05-07T01:29:43.254Z,1008.49
2016-05-07T01:29:53.098Z,1008.43
2016-05-07T01:30:02.973Z,1008.42
2016-05-07T01:30:13.254Z,1008.44
2016-05-07T01:30:23.113Z,1008.48
2016-05-07T01:30:33.256Z,1008.49
2016-05-07T01:30:43.240Z,1008.42
2016-05-07T01:30:53.240Z,1008.47
2016-05-07T01:31:03.225Z,1008.43
2016-05-07T01:31:13.225Z,1008.47
2016-05-07T01:31:23.209Z,1008.45
2016-05-07T01:31:33.057Z,1008.42
2016-05-07T01:31:43.213Z,1008.46
2016-05-07T01:31:53.197Z,1008.42
2016-05-07T01:32:03.057Z,1008.44
2016-05-07T01:32:13.197Z,1008.43
2016-05-07T01:32:23.182Z,1008.43
2016-05-07T01:32:33.184Z,1008.46
2016-05-07T01:32:43.168Z,1008.41
2016-05-07T01:32:53.012Z,1008.47
2016-05-07T01:33:03.028Z,1008.47
2016-05-07T01:33:13.153Z,1008.44
2016-05-07T01:33:23.168Z,1008.5
2016-05-07T01:33:33.156Z,1008.42
2016-05-07T01:33:43.156Z,1008.45
2016-05-07T01:33:52.984Z,1008.5
2016-05-07T01:34:03.140Z,1008.47
2016-05-07T01:34:13.140Z,1008.46
2016-05-07T01:34:23.124Z,1008.51
2016-05-07T01:34:33.143Z,1008.49
2016-05-07T01:34:42.987Z,1008.47
2016-05-07T01:34:53.112Z,1008.48
2016-05-07T01:35:03.127Z,1008.45
2016-05-07T01:35:12.799Z,1008.5
2016-05-07T01:35:23.112Z,1008.47
2016-05-07T01:35:33.098Z,1008.49
2016-05-07T01:35:43.098Z,1008.47
2016-05-07T01:35:53.082Z,1008.53
2016-05-07T01:36:02.926Z,1008.51
2016-05-07T01:36:13.082Z,1008.44
2016-05-07T01:36:23.082Z,1008.46
2016-05-07T01:36:32.914Z,1008.49
2016-05-07T01:36:43.070Z,1008.45
2016-05-07T01:36:53.054Z,1008.45
2016-05-07T01:37:02.898Z,1008.46
2016-05-07T01:37:13.039Z,1008.42
2016-05-07T01:37:23.039Z,1008.49
2016-05-07T01:37:33.041Z,1008.43
2016-05-07T01:37:42.884Z,1008.44
2016-05-07T01:37:52.884Z,1008.42
2016-05-07T01:38:03.041Z,1008.46
2016-05-07T01:38:13.025Z,1008.46
2016-05-07T01:38:23.009Z,1008.44
2016-05-07T01:38:32.997Z,1008.5
2016-05-07T01:38:42.840Z,1008.46
2016-05-07T01:38:52.997Z,1008.44
2016-05-07T01:39:03.012Z,1008.43
2016-05-07T01:39:12.997Z,1008.47
2016-05-07T01:39:23.012Z,1008.46
2016-05-07T01:39:33.015Z,1008.47
2016-05-07T01:39:42.828Z,1008.44
2016-05-07T01:39:52.828Z,1008.46
2016-05-07T01:40:02.984Z,1008.41
2016-05-07T01:40:12.812Z,1008.48
2016-05-07T01:40:22.968Z,1008.48
2016-05-07T01:40:32.815Z,1008.5
2016-05-07T01:40:42.956Z,1008.45
2016-05-07T01:40:52.971Z,1008.43
2016-05-07T01:41:02.946Z,1008.45
2016-05-07T01:41:13.196Z,1008.43
2016-05-07T01:41:22.933Z,1008.44
2016-05-07T01:41:32.951Z,1008.45
2016-05-07T01:41:42.935Z,1008.48
2016-05-07T01:41:52.920Z,1008.45
2016-05-07T01:42:02.763Z,1008.42
2016-05-07T01:42:12.908Z,1008.47
2016-05-07T01:42:22.908Z,1008.45
2016-05-07T01:42:32.708Z,1008.44
2016-05-07T01:42:42.895Z,1008.44
2016-05-07T01:42:53.098Z,1008.42
2016-05-07T01:43:02.911Z,1008.42
2016-05-07T01:43:12.723Z,1008.44
2016-05-07T01:43:22.911Z,1008.46
2016-05-07T01:43:32.945Z,1008.44
2016-05-07T01:43:42.867Z,1008.42
2016-05-07T01:43:52.820Z,1008.38
2016-05-07T01:44:03.344Z,1008.41
2016-05-07T01:44:13.098Z,1008.43
2016-05-07T01:44:22.879Z,1008.41
2016-05-07T01:44:32.694Z,1008.37
2016-05-07T01:44:42.851Z,1008.41
2016-05-07T01:44:52.851Z,1008.41
2016-05-07T01:45:02.819Z,1008.37
2016-05-07T01:45:12.819Z,1008.41
2016-05-07T01:45:22.819Z,1008.38
2016-05-07T01:45:32.665Z,1008.39
2016-05-07T01:45:42.806Z,1008.41
2016-05-07T01:45:52.806Z,1008.37
2016-05-07T01:46:02.790Z,1008.35
2016-05-07T01:46:12.790Z,1008.4
2016-05-07T01:46:22.790Z,1008.39
2016-05-07T01:46:32.793Z,1008.36
2016-05-07T01:46:42.793Z,1008.36
2016-05-07T01:46:52.777Z,1008.35
2016-05-07T01:47:02.777Z,1008.34
2016-05-07T01:47:12.762Z,1008.35
2016-05-07T01:47:22.856Z,1008.34
2016-05-07T01:47:32.765Z,1008.38
2016-05-07T01:47:42.609Z,1008.35
2016-05-07T01:47:52.749Z,1008.38
2016-05-07T01:48:02.749Z,1008.33
2016-05-07T01:48:12.734Z,1008.38
2016-05-07T01:48:22.577Z,1008.33
2016-05-07T01:48:32.579Z,1008.35
2016-05-07T01:48:42.720Z,1008.4
2016-05-07T01:48:52.720Z,1008.35
2016-05-07T01:49:02.564Z,1008.41
2016-05-07T01:49:12.548Z,1008.36
2016-05-07T01:49:22.704Z,1008.34
2016-05-07T01:49:32.691Z,1008.35
2016-05-07T01:49:42.691Z,1008.36
2016-05-07T01:49:52.691Z,1008.34
2016-05-07T01:50:02.675Z,1008.39
2016-05-07T01:50:12.534Z,1008.32
2016-05-07T01:50:22.675Z,1008.39
2016-05-07T01:50:32.523Z,1008.32
2016-05-07T01:50:42.523Z,1008.36
2016-05-07T01:50:52.663Z,1008.31
2016-05-07T01:51:02.663Z,1008.37
2016-05-07T01:51:12.492Z,1008.36
2016-05-07T01:51:22.648Z,1008.36
2016-05-07T01:51:32.650Z,1008.35
2016-05-07T01:51:42.650Z,1008.35
2016-05-07T01:51:52.478Z,1008.39
2016-05-07T01:52:02.478Z,1008.34
2016-05-07T01:52:12.619Z,1008.32
2016-05-07T01:52:22.619Z,1008.36
2016-05-07T01:52:32.621Z,1008.35
2016-05-07T01:52:42.605Z,1008.36
2016-05-07T01:52:52.449Z,1008.33
2016-05-07T01:53:02.589Z,1008.36
2016-05-07T01:53:12.589Z,1008.33
2016-05-07T01:53:22.621Z,1008.38
2016-05-07T01:53:32.578Z,1008.4
2016-05-07T01:53:42.578Z,1008.4
2016-05-07T01:53:52.421Z,1008.36
2016-05-07T01:54:02.421Z,1008.42
2016-05-07T01:54:12.562Z,1008.39
2016-05-07T01:54:22.406Z,1008.33
2016-05-07T01:54:32.548Z,1008.39
2016-05-07T01:54:42.548Z,1008.37
2016-05-07T01:54:52.564Z,1008.39
2016-05-07T01:55:02.392Z,1008.39
2016-05-07T01:55:12.533Z,1008.36
2016-05-07T01:55:22.533Z,1008.37
2016-05-07T01:55:32.380Z,1008.36
2016-05-07T01:55:42.520Z,1008.38
2016-05-07T01:55:52.520Z,1008.42
2016-05-07T01:56:02.505Z,1008.37
2016-05-07T01:56:12.520Z,1008.41
2016-05-07T01:56:22.505Z,1008.39
2016-05-07T01:56:32.492Z,1008.34
2016-05-07T01:56:42.492Z,1008.31
2016-05-07T01:56:52.336Z,1008.36
2016-05-07T01:57:02.804Z,1008.37
2016-05-07T01:57:12.711Z,1008.39
2016-05-07T01:57:22.492Z,1008.38
2016-05-07T01:57:32.697Z,1008.38
2016-05-07T01:57:42.478Z,1008.38
2016-05-07T01:57:52.900Z,1008.42
2016-05-07T01:58:02.447Z,1008.4
2016-05-07T01:58:12.306Z,1008.37
2016-05-07T01:58:22.463Z,1008.38
2016-05-07T01:58:32.450Z,1008.39
2016-05-07T01:58:42.450Z,1008.4
2016-05-07T01:58:52.278Z,1008.41
2016-05-07T01:59:02.278Z,1008.4
2016-05-07T01:59:12.419Z,1008.44
2016-05-07T01:59:22.419Z,1008.37
2016-05-07T01:59:32.422Z,1008.4
2016-05-07T01:59:42.266Z,1008.36
2016-05-07T01:59:52.406Z,1008.37
2016-05-07T02:00:02.406Z,1008.39
2016-05-07T02:00:12.406Z,1008.37
2016-05-07T02:00:22.234Z,1008.35
2016-05-07T02:00:32.393Z,1008.36
2016-05-07T02:00:42.377Z,1008.37
2016-05-07T02:00:52.361Z,1008.39
2016-05-07T02:01:02.221Z,1008.37
2016-05-07T02:01:12.377Z,1008.4